createdAt,value
2024-02-29T00:00:15.644Z,101524.22
2024-02-29T00:00:47.142Z,101528.50
2024-02-29T00:01:18.650Z,101532.34
2024-02-29T00:01:50.180Z,101528.50
2024-02-29T00:02:21.704Z,101532.34
2024-02-29T00:02:53.474Z,101533.91
2024-02-29T00:03:24.891Z,101532.81
2024-02-29T00:03:56.451Z,101528.19
2024-02-29T00:04:30.640Z,101521.66
2024-02-29T00:05:02.082Z,101526.28
2024-02-29T00:05:33.503Z,101528.19
2024-02-29T00:06:05.387Z,101527.06
2024-02-29T00:06:37.009Z,101525.94
2024-02-29T00:07:09.577Z,101526.75
2024-02-29T00:07:59.904Z,101524.03
2024-02-29T00:08:31.360Z,101519.41
2024-02-29T00:09:03.617Z,101521.78
2024-02-29T00:09:36.951Z,101520.97
2024-02-29T00:10:09.730Z,101520.19
2024-02-29T00:10:41.567Z,101515.94
2024-02-29T00:11:13.342Z,101518.28
2024-02-29T00:11:44.880Z,101512.06
2024-02-29T00:12:16.500Z,101515.56
2024-02-29T00:12:48.065Z,101516.38
2024-02-29T00:13:19.529Z,101514.47
2024-02-29T00:13:51.360Z,101514.47
2024-02-29T00:14:22.923Z,101507.47
2024-02-29T00:14:54.353Z,101510.97
2024-02-29T00:15:27.351Z,101510.31
2024-02-29T00:16:17.143Z,101507.94
2024-02-29T00:16:48.815Z,101511.09
2024-02-29T00:17:20.972Z,101505.69
2024-02-29T00:17:52.517Z,101511.91
2024-02-29T00:18:24.126Z,101509.66
2024-02-29T00:18:55.719Z,101503.78
2024-02-29T00:19:28.223Z,101503.78
2024-02-29T00:19:59.702Z,101509.66
2024-02-29T00:20:31.150Z,101511.25
2024-02-29T00:21:02.752Z,101509.66
2024-02-29T00:21:34.585Z,101509.66
2024-02-29T00:22:06.779Z,101508.53
2024-02-29T00:22:38.929Z,101512.38
2024-02-29T00:23:10.398Z,101511.25
2024-02-29T00:23:42.545Z,101504.25
2024-02-29T00:24:14.082Z,101512.38
2024-02-29T00:24:45.534Z,101509.34
2024-02-29T00:25:17.225Z,101508.22
2024-02-29T00:25:48.682Z,101507.41
2024-02-29T00:26:20.119Z,101506.31
2024-02-29T00:26:51.576Z,101503.59
2024-02-29T00:27:23.209Z,101503.59
2024-02-29T00:27:54.634Z,101502.47
2024-02-29T00:28:26.075Z,101505.97
2024-02-29T00:28:57.828Z,101500.56
2024-02-29T00:29:29.614Z,101503.28
2024-02-29T00:30:01.097Z,101511.06
2024-02-29T00:30:32.538Z,101505.66
2024-02-29T00:31:04.726Z,101500.25
2024-02-29T00:31:36.728Z,101502.94
2024-02-29T00:32:09.190Z,101497.22
2024-02-29T00:32:40.719Z,101491.34
2024-02-29T00:33:12.275Z,101496.75
2024-02-29T00:33:43.773Z,101499.13
2024-02-29T00:34:15.753Z,101494.81
2024-02-29T00:34:47.365Z,101496.75
2024-02-29T00:35:18.884Z,101499.44
2024-02-29T00:35:55.392Z,101494.81
2024-02-29T00:36:30.548Z,101494.50
2024-02-29T00:37:02.109Z,101493.72
2024-02-29T00:37:33.659Z,101491.78
2024-02-29T00:38:05.412Z,101494.50
2024-02-29T00:38:37.934Z,101490.22
2024-02-29T00:39:14.725Z,101486.72
2024-02-29T00:39:47.122Z,101493.25
2024-02-29T00:40:18.682Z,101497.84
2024-02-29T00:40:50.121Z,101493.72
2024-02-29T00:41:21.589Z,101488.31
2024-02-29T00:41:53.453Z,101490.53
2024-02-29T00:42:24.921Z,101494.81
2024-02-29T00:42:56.518Z,101488.63
2024-02-29T00:43:28.018Z,101485.13
2024-02-29T00:43:59.472Z,101498.66
2024-02-29T00:44:30.942Z,101482.41
2024-02-29T00:45:51.716Z,101491.34
2024-02-29T00:46:23.695Z,101490.22
2024-02-29T00:46:55.287Z,101492.13
2024-02-29T00:47:26.827Z,101497.53
2024-02-29T00:47:58.361Z,101492.91
2024-02-29T00:48:29.885Z,101486.72
2024-02-29T00:49:01.411Z,101492.13
2024-02-29T00:49:34.326Z,101491.00
2024-02-29T00:50:08.253Z,101493.72
2024-02-29T00:50:39.706Z,101491.00
2024-02-29T00:51:11.263Z,101495.28
2024-02-29T00:51:43.272Z,101489.88
2024-02-29T00:52:14.843Z,101484.47
2024-02-29T00:52:46.318Z,101486.06
2024-02-29T00:53:36.351Z,101492.25
2024-02-29T00:54:07.914Z,101485.72
2024-02-29T00:54:58.062Z,101481.88
2024-02-29T00:55:48.449Z,101484.16
2024-02-29T00:56:20.263Z,101494.66
2024-02-29T00:56:52.309Z,101479.53
2024-02-29T00:57:23.778Z,101474.13
2024-02-29T00:57:55.316Z,101483.34
2024-02-29T00:58:26.952Z,101479.84
2024-02-29T00:58:58.430Z,101484.47
2024-02-29T00:59:29.934Z,101471.72
2024-02-29T01:00:01.424Z,101469.03
2024-02-29T01:00:33.002Z,101468.22
2024-02-29T01:01:04.916Z,101465.53
2024-02-29T01:01:36.544Z,101469.03
2024-02-29T01:02:08.222Z,101472.06
2024-02-29T01:02:39.761Z,101462.81
2024-02-29T01:03:11.381Z,101466.66
2024-02-29T01:03:43.382Z,101470.94
2024-02-29T01:04:33.377Z,101465.53
2024-02-29T01:05:05.396Z,101466.31
2024-02-29T01:05:36.887Z,101469.03
2024-02-29T01:06:08.560Z,101467.44
2024-02-29T01:06:58.831Z,101462.50
2024-02-29T01:07:30.364Z,101459.00
2024-02-29T01:08:01.820Z,101454.69
2024-02-29T01:08:33.667Z,101453.59
2024-02-29T01:09:05.489Z,101455.16
2024-02-29T01:09:37.065Z,101451.66
2024-02-29T01:10:12.880Z,101455.16
2024-02-29T01:10:44.504Z,101450.56
2024-02-29T01:11:16.201Z,101452.47
2024-02-29T01:12:06.657Z,101454.81
2024-02-29T01:12:44.435Z,101453.69
2024-02-29T01:13:16.018Z,101450.19
2024-02-29T01:13:47.652Z,101445.94
2024-02-29T01:14:19.231Z,101445.94
2024-02-29T01:14:51.853Z,101449.41
2024-02-29T01:15:23.404Z,101442.06
2024-02-29T01:15:54.978Z,101446.38
2024-02-29T01:16:26.571Z,101439.38
2024-02-29T01:16:58.245Z,101443.66
2024-02-29T01:17:29.826Z,101446.38
2024-02-29T01:18:02.315Z,101438.25
2024-02-29T01:18:33.879Z,101442.06
2024-02-29T01:19:07.403Z,101439.84
2024-02-29T01:19:39.563Z,101436.34
2024-02-29T01:20:11.085Z,101436.34
2024-02-29T01:20:42.652Z,101437.13
2024-02-29T01:21:14.121Z,101431.72
2024-02-29T01:21:45.620Z,101431.72
2024-02-29T01:22:18.187Z,101429.81
2024-02-29T01:22:49.784Z,101429.00
2024-02-29T01:23:21.312Z,101433.31
2024-02-29T01:23:52.931Z,101431.38
2024-02-29T01:24:25.693Z,101423.28
2024-02-29T01:24:57.302Z,101426.78
2024-02-29T01:25:28.899Z,101425.97
2024-02-29T01:26:00.359Z,101425.97
2024-02-29T01:26:34.129Z,101417.84
2024-02-29T01:27:05.798Z,101417.84
2024-02-29T01:27:37.358Z,101415.16
2024-02-29T01:28:08.889Z,101418.31
2024-02-29T01:28:40.345Z,101412.91
2024-02-29T01:29:11.807Z,101416.75
2024-02-29T01:29:43.525Z,101416.75
2024-02-29T01:30:15.059Z,101415.94
2024-02-29T01:31:05.381Z,101407.03
2024-02-29T01:31:36.871Z,101407.50
2024-02-29T01:32:15.834Z,101406.72
2024-02-29T01:32:53.892Z,101412.91
2024-02-29T01:33:25.440Z,101412.13
2024-02-29T01:33:56.956Z,101406.72
2024-02-29T01:34:28.400Z,101402.88
2024-02-29T01:35:00.347Z,101397.47
2024-02-29T01:35:50.344Z,101404.00
2024-02-29T01:36:21.819Z,101402.88
2024-02-29T01:36:53.387Z,101407.50
2024-02-29T01:37:24.831Z,101400.97
2024-02-29T01:37:56.383Z,101402.09
2024-02-29T01:38:28.017Z,101396.34
2024-02-29T01:38:59.451Z,101399.06
2024-02-29T01:39:31.118Z,101398.25
2024-02-29T01:40:03.042Z,101395.56
2024-02-29T01:40:34.605Z,101392.84
2024-02-29T01:41:06.776Z,101400.16
2024-02-29T01:41:38.278Z,101389.81
2024-02-29T01:42:11.501Z,101393.63
2024-02-29T01:42:43.097Z,101399.84
2024-02-29T01:43:14.635Z,101394.44
2024-02-29T01:43:53.901Z,101392.50
2024-02-29T01:44:25.360Z,101389.81
2024-02-29T01:44:57.392Z,101401.44
2024-02-29T01:45:28.983Z,101389.81
2024-02-29T01:46:21.251Z,101392.97
2024-02-29T01:46:52.772Z,101386.78
2024-02-29T01:47:25.480Z,101387.56
2024-02-29T01:47:57.164Z,101388.69
2024-02-29T01:48:28.875Z,101388.69
2024-02-29T01:49:02.616Z,101387.09
2024-02-29T01:49:36.068Z,101381.34
2024-02-29T01:50:10.105Z,101389.47
2024-02-29T01:50:41.617Z,101381.34
2024-02-29T01:51:15.240Z,101382.97
2024-02-29T01:51:48.768Z,101385.69
2024-02-29T01:52:41.442Z,101379.44
2024-02-29T01:53:12.965Z,101374.53
2024-02-29T01:53:45.225Z,101387.28
2024-02-29T01:54:17.112Z,101375.66
2024-02-29T01:54:48.617Z,101373.72
2024-02-29T01:55:20.180Z,101383.78
2024-02-29T01:55:51.676Z,101381.84
2024-02-29T01:56:23.440Z,101371.03
2024-02-29T01:56:56.642Z,101376.09
2024-02-29T01:57:28.778Z,101373.41
2024-02-29T01:58:00.334Z,101376.09
2024-02-29T01:58:33.404Z,101364.50
2024-02-29T01:59:05.842Z,101375.31
2024-02-29T01:59:38.107Z,101376.09
2024-02-29T02:00:10.339Z,101378.81
2024-02-29T02:00:41.953Z,101365.28
2024-02-29T02:01:32.309Z,101366.88
2024-02-29T02:02:04.177Z,101373.88
2024-02-29T02:02:36.048Z,101373.88
2024-02-29T02:03:07.576Z,101369.25
2024-02-29T02:03:40.179Z,101370.03
2024-02-29T02:04:11.761Z,101370.84
2024-02-29T02:04:43.299Z,101371.63
2024-02-29T02:05:15.182Z,101371.63
2024-02-29T02:05:46.698Z,101365.41
2024-02-29T02:06:37.563Z,101365.09
2024-02-29T02:07:09.730Z,101361.22
2024-02-29T02:07:42.606Z,101359.31
2024-02-29T02:08:14.225Z,101359.31
2024-02-29T02:08:45.734Z,101356.59
2024-02-29T02:09:17.155Z,101357.41
2024-02-29T02:09:48.751Z,101354.69
2024-02-29T02:10:20.336Z,101348.47
2024-02-29T02:10:51.793Z,101353.09
2024-02-29T02:11:23.311Z,101350.41
2024-02-29T02:11:54.819Z,101351.19
2024-02-29T02:12:26.320Z,101349.28
2024-02-29T02:12:57.845Z,101347.69
2024-02-29T02:13:29.284Z,101340.38
2024-02-29T02:14:00.673Z,101346.56
2024-02-29T02:14:32.094Z,101350.06
2024-02-29T02:15:04.128Z,101345.78
2024-02-29T02:15:35.875Z,101344.19
2024-02-29T02:16:58.673Z,101335.75
2024-02-29T02:17:31.612Z,101334.63
2024-02-29T02:18:04.198Z,101343.88
2024-02-29T02:18:36.676Z,101348.16
2024-02-29T02:19:14.198Z,101345.44
2024-02-29T02:19:45.714Z,101341.94
2024-02-29T02:20:18.511Z,101332.69
2024-02-29T02:20:50.773Z,101340.50
2024-02-29T02:21:22.236Z,101340.50
2024-02-29T02:21:53.674Z,101333.50
2024-02-29T02:22:25.528Z,101331.56
2024-02-29T02:22:57.009Z,101340.03
2024-02-29T02:23:28.420Z,101343.19
2024-02-29T02:23:59.947Z,101348.63
2024-02-29T02:24:37.671Z,101337.78
2024-02-29T02:25:09.239Z,101337.78
2024-02-29T02:25:40.701Z,101328.88
2024-02-29T02:26:12.109Z,101331.56
2024-02-29T02:26:43.528Z,101335.88
2024-02-29T02:27:14.986Z,101331.91
2024-02-29T02:28:35.251Z,101330.47
2024-02-29T02:29:09.382Z,101333.16
2024-02-29T02:29:40.948Z,101329.34
2024-02-29T02:30:12.548Z,101326.63
2024-02-29T02:30:44.171Z,101335.53
2024-02-29T02:31:16.361Z,101329.00
2024-02-29T02:31:47.836Z,101330.91
2024-02-29T02:32:19.314Z,101326.28
2024-02-29T02:32:50.771Z,101324.38
2024-02-29T02:33:22.299Z,101327.88
2024-02-29T02:33:53.770Z,101332.50
2024-02-29T02:34:25.511Z,101319.75
2024-02-29T02:34:57.013Z,101330.59
2024-02-29T02:35:28.507Z,101327.09
2024-02-29T02:35:59.936Z,101325.16
2024-02-29T02:36:31.337Z,101321.34
2024-02-29T02:37:02.815Z,101327.53
2024-02-29T02:37:35.123Z,101324.84
2024-02-29T02:38:06.934Z,101327.53
2024-02-29T02:38:38.351Z,101319.41
2024-02-29T02:39:09.765Z,101324.03
2024-02-29T02:39:41.347Z,101319.41
2024-02-29T02:40:13.248Z,101325.63
2024-02-29T02:41:03.506Z,101317.97
2024-02-29T02:41:35.068Z,101321.78
2024-02-29T02:42:06.519Z,101316.38
2024-02-29T02:42:38.047Z,101315.59
2024-02-29T02:43:09.538Z,101319.09
2024-02-29T02:44:29.782Z,101312.56
2024-02-29T02:45:19.721Z,101316.38
2024-02-29T02:45:51.193Z,101312.88
2024-02-29T02:46:22.629Z,101312.88
2024-02-29T02:46:54.207Z,101316.38
2024-02-29T02:47:25.756Z,101313.69
2024-02-29T02:47:57.457Z,101306.34
2024-02-29T02:48:28.943Z,101310.97
2024-02-29T02:49:18.733Z,101312.56
2024-02-29T02:49:50.217Z,101304.44
2024-02-29T02:50:21.758Z,101307.13
2024-02-29T02:50:53.307Z,101303.31
2024-02-29T02:51:28.243Z,101306.34
2024-02-29T02:51:59.708Z,101304.44
2024-02-29T02:52:31.166Z,101307.13
2024-02-29T02:53:05.257Z,101303.31
2024-02-29T02:54:25.904Z,101302.19
2024-02-29T02:55:16.252Z,101289.44
2024-02-29T02:55:47.755Z,101304.88
2024-02-29T02:56:19.242Z,101304.88
2024-02-29T02:56:50.718Z,101293.25
2024-02-29T02:57:22.277Z,101298.34
2024-02-29T02:57:53.727Z,101289.44
2024-02-29T02:58:25.218Z,101301.06
2024-02-29T02:58:56.723Z,101289.44
2024-02-29T02:59:29.226Z,101286.72
2024-02-29T03:00:00.698Z,101290.22
2024-02-29T03:00:32.265Z,101291.34
2024-02-29T03:01:04.336Z,101292.13
2024-02-29T03:01:36.043Z,101285.59
2024-02-29T03:02:07.551Z,101289.09
2024-02-29T03:02:40.631Z,101294.50
2024-02-29T03:03:12.099Z,101285.59
2024-02-29T03:03:43.519Z,101279.41
2024-02-29T03:04:16.429Z,101292.59
2024-02-29T03:04:47.966Z,101289.09
2024-02-29T03:05:21.204Z,101285.59
2024-02-29T03:06:11.225Z,101282.09
2024-02-29T03:06:42.677Z,101280.19
2024-02-29T03:07:14.155Z,101286.41
2024-02-29T03:07:45.818Z,101280.19
2024-02-29T03:08:17.294Z,101286.41
2024-02-29T03:08:48.743Z,101275.56
2024-02-29T03:09:20.119Z,101280.19
2024-02-29T03:09:51.636Z,101279.06
2024-02-29T03:10:23.044Z,101274.44
2024-02-29T03:10:54.716Z,101283.34
2024-02-29T03:11:26.281Z,101274.06
2024-02-29T03:11:57.735Z,101278.72
2024-02-29T03:12:48.554Z,101280.28
2024-02-29T03:13:20.184Z,101273.31
2024-02-29T03:13:51.616Z,101278.72
2024-02-29T03:14:23.053Z,101268.66
2024-02-29T03:14:54.467Z,101274.06
2024-02-29T03:15:25.847Z,101265.63
2024-02-29T03:15:57.407Z,101272.94
2024-02-29T03:16:29.097Z,101268.31
2024-02-29T03:17:00.552Z,101269.44
2024-02-29T03:17:50.526Z,101267.53
2024-02-29T03:18:21.931Z,101269.44
2024-02-29T03:18:53.405Z,101262.47
2024-02-29T03:19:24.866Z,101264.41
2024-02-29T03:19:56.308Z,101262.81
2024-02-29T03:20:27.755Z,101266.31
2024-02-29T03:20:59.467Z,101260.13
2024-02-29T03:21:31.018Z,101263.94
2024-02-29T03:22:02.494Z,101267.78
2024-02-29T03:22:34.056Z,101263.59
2024-02-29T03:23:07.449Z,101263.94
2024-02-29T03:23:38.977Z,101260.44
2024-02-29T03:24:10.468Z,101256.63
2024-02-29T03:24:45.909Z,101256.94
2024-02-29T03:25:17.716Z,101262.34
2024-02-29T03:25:49.202Z,101256.94
2024-02-29T03:26:20.811Z,101255.03
2024-02-29T03:26:52.237Z,101254.25
2024-02-29T03:27:23.633Z,101259.31
2024-02-29T03:27:55.389Z,101258.53
2024-02-29T03:28:26.881Z,101252.00
2024-02-29T03:28:58.441Z,101257.41
2024-02-29T03:29:32.024Z,101254.38
2024-02-29T03:30:03.831Z,101249.28
2024-02-29T03:30:35.309Z,101247.38
2024-02-29T03:31:15.807Z,101246.25
2024-02-29T03:31:47.274Z,101247.38
2024-02-29T03:32:21.574Z,101248.50
2024-02-29T03:32:54.918Z,101243.06
2024-02-29T03:33:26.444Z,101240.38
2024-02-29T03:33:58.038Z,101245.44
2024-02-29T03:34:29.559Z,101238.13
2024-02-29T03:35:02.781Z,101240.03
2024-02-29T03:35:34.209Z,101241.59
2024-02-29T03:36:06.108Z,101243.53
2024-02-29T03:36:56.196Z,101245.88
2024-02-29T03:37:27.640Z,101240.81
2024-02-29T03:37:59.076Z,101240.81
2024-02-29T03:38:30.463Z,101239.25
2024-02-29T03:39:01.859Z,101242.28
2024-02-29T03:39:33.339Z,101236.06
2024-02-29T03:40:05.523Z,101241.16
2024-02-29T03:40:36.928Z,101239.56
2024-02-29T03:41:08.341Z,101243.06
2024-02-29T03:41:58.005Z,101243.88
2024-02-29T03:42:29.791Z,101243.06
2024-02-29T03:43:01.978Z,101233.81
2024-02-29T03:43:35.760Z,101236.53
2024-02-29T03:44:07.191Z,101237.66
2024-02-29T03:44:42.503Z,101238.44
2024-02-29T03:45:32.507Z,101236.88
2024-02-29T03:46:04.263Z,101235.75
2024-02-29T03:46:35.771Z,101234.94
2024-02-29T03:47:07.577Z,101239.56
2024-02-29T03:47:57.692Z,101229.53
2024-02-29T03:48:29.878Z,101241.50
2024-02-29T03:49:01.399Z,101242.28
2024-02-29T03:49:32.918Z,101229.88
2024-02-29T03:50:04.610Z,101236.06
2024-02-29T03:50:36.070Z,101229.88
2024-02-29T03:51:07.560Z,101229.09
2024-02-29T03:51:40.202Z,101234.50
2024-02-29T03:52:11.887Z,101233.25
2024-02-29T03:52:43.378Z,101228.63
2024-02-29T03:53:14.813Z,101234.38
2024-02-29T03:53:46.244Z,101228.97
2024-02-29T03:54:17.681Z,101233.59
2024-02-29T03:54:49.208Z,101230.88
2024-02-29T03:55:20.828Z,101227.38
2024-02-29T03:55:52.364Z,101227.72
2024-02-29T03:56:24.451Z,101228.50
2024-02-29T03:56:56.003Z,101226.59
2024-02-29T03:57:27.519Z,101217.22
2024-02-29T03:57:59.126Z,101223.41
2024-02-29T03:58:30.608Z,101222.28
2024-02-29T03:59:02.028Z,101225.00
2024-02-29T03:59:33.539Z,101219.59
2024-02-29T04:00:11.824Z,101225.00
2024-02-29T04:00:46.258Z,101221.16
2024-02-29T04:01:17.849Z,101223.88
2024-02-29T04:01:50.401Z,101218.00
2024-02-29T04:02:23.626Z,101216.09
2024-02-29T04:02:55.047Z,101207.19
2024-02-29T04:03:26.634Z,101211.00
2024-02-29T04:04:18.279Z,101213.38
2024-02-29T04:04:49.837Z,101212.59
2024-02-29T04:05:25.382Z,101212.59
2024-02-29T04:05:56.996Z,101209.09
2024-02-29T04:06:28.394Z,101209.09
2024-02-29T04:06:59.949Z,101210.22
2024-02-29T04:07:31.433Z,101210.22
2024-02-29T04:08:04.903Z,101206.72
2024-02-29T04:08:36.980Z,101208.63
2024-02-29T04:09:08.428Z,101210.22
2024-02-29T04:09:58.632Z,101212.94
2024-02-29T04:10:33.331Z,101207.84
2024-02-29T04:11:05.406Z,101211.34
2024-02-29T04:11:37.427Z,101207.84
2024-02-29T04:12:09.060Z,101207.84
2024-02-29T04:12:40.526Z,101202.44
2024-02-29T04:13:12.172Z,101211.34
2024-02-29T04:13:43.624Z,101212.47
2024-02-29T04:14:15.092Z,101201.63
2024-02-29T04:14:46.527Z,101208.19
2024-02-29T04:15:36.730Z,101208.97
2024-02-29T04:16:08.688Z,101207.38
2024-02-29T04:16:40.226Z,101204.34
2024-02-29T04:17:11.631Z,101210.88
2024-02-29T04:18:01.556Z,101207.84
2024-02-29T04:18:33.061Z,101206.25
2024-02-29T04:19:05.461Z,101210.56
2024-02-29T04:19:39.087Z,101215.19
2024-02-29T04:20:10.738Z,101207.06
2024-02-29T04:20:42.259Z,101204.69
2024-02-29T04:21:13.673Z,101209.75
2024-02-29T04:21:47.027Z,101206.59
2024-02-29T04:22:18.593Z,101203.09
2024-02-29T04:22:50.082Z,101208.50
2024-02-29T04:23:21.546Z,101205.00
2024-02-29T04:23:52.979Z,101202.31
2024-02-29T04:24:24.398Z,101201.53
2024-02-29T04:24:55.875Z,101196.91
2024-02-29T04:25:28.056Z,101201.53
2024-02-29T04:26:48.389Z,101196.91
2024-02-29T04:27:19.898Z,101198.81
2024-02-29T04:27:52.165Z,101202.31
2024-02-29T04:28:23.677Z,101193.41
2024-02-29T04:28:55.381Z,101196.09
2024-02-29T04:29:26.854Z,101192.59
2024-02-29T04:29:58.368Z,101205.00
2024-02-29T04:30:30.602Z,101190.69
2024-02-29T04:31:05.515Z,101194.56
2024-02-29T04:31:36.960Z,101190.69
2024-02-29T04:32:08.441Z,101194.56
2024-02-29T04:32:40.034Z,101192.97
2024-02-29T04:33:12.799Z,101191.06
2024-02-29T04:33:45.526Z,101192.97
2024-02-29T04:34:17.143Z,101192.97
2024-02-29T04:34:48.905Z,101188.69
2024-02-29T04:35:20.412Z,101194.56
2024-02-29T04:35:51.831Z,101188.34
2024-02-29T04:36:23.280Z,101191.06
2024-02-29T04:36:55.060Z,101191.06
2024-02-29T04:37:26.552Z,101188.34
2024-02-29T04:37:57.997Z,101186.44
2024-02-29T04:38:29.399Z,101189.13
2024-02-29T04:39:00.865Z,101188.34
2024-02-29T04:39:32.520Z,101190.25
2024-02-29T04:40:05.648Z,101184.84
2024-02-29T04:40:38.897Z,101194.88
2024-02-29T04:41:10.522Z,101178.97
2024-02-29T04:41:42.026Z,101181.69
2024-02-29T04:42:13.468Z,101182.16
2024-02-29T04:42:44.998Z,101179.06
2024-02-29T04:43:17.746Z,101184.06
2024-02-29T04:43:49.618Z,101184.06
2024-02-29T04:44:21.082Z,101175.94
2024-02-29T04:44:52.601Z,101184.41
2024-02-29T04:45:27.830Z,101184.41
2024-02-29T04:46:00.784Z,101178.97
2024-02-29T04:46:32.311Z,101181.69
2024-02-29T04:47:04.130Z,101185.19
2024-02-29T04:47:35.997Z,101181.34
2024-02-29T04:48:08.053Z,101182.94
2024-02-29T04:49:28.396Z,101177.53
2024-02-29T04:49:59.930Z,101181.69
2024-02-29T04:50:31.386Z,101177.41
2024-02-29T04:51:02.960Z,101175.81
2024-02-29T04:51:35.093Z,101177.72
2024-02-29T04:52:06.636Z,101173.13
2024-02-29T04:52:38.097Z,101171.53
2024-02-29T04:53:09.578Z,101186.97
2024-02-29T04:53:41.136Z,101172.31
2024-02-29T04:54:12.592Z,101179.66
2024-02-29T04:54:44.228Z,101178.06
2024-02-29T04:55:15.950Z,101173.44
2024-02-29T04:55:47.439Z,101174.25
2024-02-29T04:56:19.419Z,101176.59
2024-02-29T04:56:50.917Z,101166.91
2024-02-29T04:57:22.370Z,101175.81
2024-02-29T04:57:53.868Z,101180.44
2024-02-29T04:58:25.375Z,101178.53
2024-02-29T04:58:56.834Z,101169.63
2024-02-29T04:59:28.296Z,101173.13
2024-02-29T04:59:59.768Z,101177.72
2024-02-29T05:00:31.195Z,101173.44
2024-02-29T05:01:03.311Z,101179.66
2024-02-29T05:01:35.075Z,101171.53
2024-02-29T05:02:07.718Z,101172.31
2024-02-29T05:02:39.512Z,101165.00
2024-02-29T05:03:10.915Z,101168.81
2024-02-29T05:03:42.323Z,101173.91
2024-02-29T05:04:13.994Z,101168.50
2024-02-29T05:04:46.243Z,101166.56
2024-02-29T05:05:17.698Z,101164.19
2024-02-29T05:05:49.181Z,101157.34
2024-02-29T05:06:39.365Z,101167.69
2024-02-29T05:07:12.136Z,101158.47
2024-02-29T05:08:33.816Z,101163.53
2024-02-29T05:09:07.541Z,101162.75
2024-02-29T05:09:39.585Z,101155.41
2024-02-29T05:10:11.451Z,101159.25
2024-02-29T05:10:43.785Z,101154.63
2024-02-29T05:11:15.301Z,101157.66
2024-02-29T05:11:48.070Z,101153.03
2024-02-29T05:12:21.138Z,101153.84
2024-02-29T05:12:53.708Z,101154.97
2024-02-29T05:13:25.195Z,101152.25
2024-02-29T05:13:58.822Z,101147.63
2024-02-29T05:14:31.356Z,101150.34
2024-02-29T05:15:03.001Z,101154.63
2024-02-29T05:15:34.617Z,101144.91
2024-02-29T05:16:06.628Z,101148.41
2024-02-29T05:16:38.068Z,101146.50
2024-02-29T05:17:09.529Z,101150.78
2024-02-29T05:17:40.995Z,101154.28
2024-02-29T05:18:12.549Z,101148.88
2024-02-29T05:19:33.144Z,101146.59
2024-02-29T05:20:05.147Z,101146.16
2024-02-29T05:20:36.713Z,101142.34
2024-02-29T05:21:08.168Z,101148.53
2024-02-29T05:21:58.372Z,101139.63
2024-02-29T05:22:29.861Z,101148.09
2024-02-29T05:23:01.354Z,101139.97
2024-02-29T05:23:34.873Z,101140.75
2024-02-29T05:24:06.420Z,101145.38
2024-02-29T05:24:37.888Z,101146.16
2024-02-29T05:25:11.103Z,101143.47
2024-02-29T05:25:42.809Z,101143.47
2024-02-29T05:26:33.057Z,101138.84
2024-02-29T05:27:04.548Z,101143.47
2024-02-29T05:27:36.708Z,101138.06
2024-02-29T05:28:08.234Z,101138.84
2024-02-29T05:28:39.813Z,101142.34
2024-02-29T05:29:11.405Z,101135.00
2024-02-29T05:29:42.885Z,101135.34
2024-02-29T05:30:15.846Z,101136.13
2024-02-29T05:30:47.513Z,101136.91
2024-02-29T05:31:19.035Z,101139.63
2024-02-29T05:31:53.821Z,101137.72
2024-02-29T05:32:25.268Z,101135.75
2024-02-29T05:32:56.771Z,101135.75
2024-02-29T05:33:28.226Z,101133.06
2024-02-29T05:33:59.690Z,101128.81
2024-02-29T05:34:31.062Z,101136.13
2024-02-29T05:35:02.566Z,101130.72
2024-02-29T05:35:34.550Z,101126.09
2024-02-29T05:36:06.204Z,101138.47
2024-02-29T05:36:38.085Z,101132.31
2024-02-29T05:37:09.585Z,101135.44
2024-02-29T05:37:41.160Z,101128.44
2024-02-29T05:38:12.663Z,101133.06
2024-02-29T05:38:48.685Z,101130.34
2024-02-29T05:39:20.147Z,101126.53
2024-02-29T05:39:51.707Z,101128.44
2024-02-29T05:40:23.284Z,101130.81
2024-02-29T05:40:54.916Z,101124.59
2024-02-29T05:41:26.525Z,101130.00
2024-02-29T05:41:57.971Z,101121.91
2024-02-29T05:42:29.588Z,101121.91
2024-02-29T05:43:01.063Z,101119.97
2024-02-29T05:43:35.721Z,101118.06
2024-02-29T05:44:09.787Z,101123.47
2024-02-29T05:44:59.593Z,101119.63
2024-02-29T05:45:30.984Z,101126.19
2024-02-29T05:46:02.877Z,101129.69
2024-02-29T05:46:34.442Z,101119.63
2024-02-29T05:47:06.089Z,101121.56
2024-02-29T05:47:37.560Z,101115.34
2024-02-29T05:48:09.308Z,101123.47
2024-02-29T05:48:40.865Z,101120.78
2024-02-29T05:49:12.566Z,101120.44
2024-02-29T05:50:02.588Z,101121.22
2024-02-29T05:50:34.457Z,101115.00
2024-02-29T05:51:08.351Z,101118.50
2024-02-29T05:51:39.800Z,101115.81
2024-02-29T05:52:11.945Z,101115.81
2024-02-29T05:52:43.858Z,101122.81
2024-02-29T05:53:15.923Z,101120.88
2024-02-29T05:53:47.362Z,101116.25
2024-02-29T05:54:18.826Z,101117.06
2024-02-29T05:54:50.552Z,101117.06
2024-02-29T05:55:22.085Z,101125.97
2024-02-29T05:55:53.683Z,101120.53
2024-02-29T05:56:25.115Z,101114.81
2024-02-29T05:56:58.375Z,101114.34
2024-02-29T05:57:33.409Z,101122.91
2024-02-29T05:58:05.298Z,101116.72
2024-02-29T05:58:36.737Z,101116.72
2024-02-29T05:59:08.174Z,101116.38
2024-02-29T05:59:39.706Z,101119.09
2024-02-29T06:00:11.885Z,101112.88
2024-02-29T06:00:43.495Z,101111.75
2024-02-29T06:01:15.114Z,101121.00
2024-02-29T06:01:46.774Z,101116.38
2024-02-29T06:02:18.352Z,101115.25
2024-02-29T06:02:52.014Z,101104.41
2024-02-29T06:03:42.702Z,101104.41
2024-02-29T06:04:14.219Z,101104.75
2024-02-29T06:04:45.702Z,101111.75
2024-02-29T06:05:17.156Z,101111.75
2024-02-29T06:05:48.613Z,101114.47
2024-02-29T06:06:20.133Z,101113.66
2024-02-29T06:06:51.624Z,101109.38
2024-02-29T06:07:23.137Z,101113.66
2024-02-29T06:08:17.018Z,101109.03
2024-02-29T06:08:48.712Z,101111.75
2024-02-29T06:09:20.176Z,101107.47
2024-02-29T06:09:52.923Z,101107.47
2024-02-29T06:10:24.437Z,101107.47
2024-02-29T06:10:55.925Z,101106.69
2024-02-29T06:11:27.462Z,101112.88
2024-02-29T06:12:17.314Z,101104.75
2024-02-29T06:12:48.896Z,101102.84
2024-02-29T06:13:20.472Z,101106.34
2024-02-29T06:13:51.923Z,101101.25
2024-02-29T06:14:25.557Z,101107.47
2024-02-29T06:15:47.121Z,101108.25
2024-02-29T06:16:18.627Z,101103.97
2024-02-29T06:16:50.142Z,101100.94
2024-02-29T06:17:40.596Z,101103.63
2024-02-29T06:18:14.457Z,101108.25
2024-02-29T06:18:47.903Z,101108.72
2024-02-29T06:19:19.671Z,101110.63
2024-02-29T06:19:51.113Z,101105.22
2024-02-29T06:20:41.228Z,101105.22
2024-02-29T06:21:12.636Z,101105.22
2024-02-29T06:21:44.181Z,101099.78
2024-02-29T06:22:16.053Z,101106.00
2024-02-29T06:22:47.560Z,101105.22
2024-02-29T06:23:19.779Z,101107.91
2024-02-29T06:23:51.200Z,101104.41
2024-02-29T06:24:22.707Z,101112.22
2024-02-29T06:24:54.587Z,101102.50